createdAt,value
2019-04-06T00:00:39.207Z,15.40
2019-04-06T00:03:07.682Z,15.03
2019-04-06T00:05:36.300Z,15.50
2019-04-06T00:08:04.841Z,15.67
2019-04-06T00:10:33.377Z,15.33
2019-04-06T00:13:01.920Z,15.17
2019-04-06T00:15:30.759Z,16.60
2019-04-06T00:17:59.290Z,14.57
2019-04-06T00:20:27.737Z,15.73
2019-04-06T00:22:56.235Z,16.43
2019-04-06T00:25:24.708Z,14.80
2019-04-06T00:27:53.167Z,16.10
2019-04-06T00:30:22.064Z,15.60
2019-04-06T00:33:03.920Z,16.07
2019-04-06T00:35:32.362Z,16.70
2019-04-06T00:38:00.836Z,16.87
2019-04-06T00:40:29.362Z,15.90
2019-04-06T00:42:57.863Z,15.97
2019-04-06T00:45:26.323Z,16.40
2019-04-06T00:47:54.797Z,15.77
2019-04-06T00:50:23.289Z,16.40
2019-04-06T00:52:51.828Z,15.60
2019-04-06T00:55:20.379Z,15.33
2019-04-06T00:57:48.838Z,14.83
2019-04-06T01:00:17.445Z,15.97
2019-04-06T01:02:45.911Z,16.07
2019-04-06T01:05:14.453Z,16.03
2019-04-06T01:07:42.942Z,16.10
2019-04-06T01:10:11.493Z,16.30
2019-04-06T01:12:40.209Z,16.50
2019-04-06T01:15:09.226Z,16.93
2019-04-06T01:17:37.702Z,18.20
2019-04-06T01:20:07.189Z,17.30
2019-04-06T01:22:35.655Z,16.37
2019-04-06T01:25:07.681Z,19.73
2019-04-06T01:27:36.165Z,17.47
2019-04-06T01:30:09.163Z,16.80
2019-04-06T01:32:37.952Z,18.10
2019-04-06T01:35:06.850Z,17.37
2019-04-06T01:37:35.335Z,17.33
2019-04-06T01:40:05.955Z,17.83
2019-04-06T01:42:34.437Z,19.47
2019-04-06T01:45:02.983Z,21.20
2019-04-06T01:47:31.495Z,19.30
2019-04-06T01:49:59.982Z,18.40
2019-04-06T01:52:28.429Z,17.90
2019-04-06T01:54:59.027Z,18.40
2019-04-06T01:57:27.094Z,17.63
2019-04-06T01:59:55.568Z,17.03
2019-04-06T02:02:25.687Z,17.83
2019-04-06T02:04:54.179Z,17.60
2019-04-06T02:07:22.652Z,18.53
2019-04-06T02:09:51.233Z,17.40
2019-04-06T02:12:19.748Z,17.77
2019-04-06T02:14:48.294Z,17.17
2019-04-06T02:17:16.782Z,15.80
2019-04-06T02:19:45.243Z,17.33
2019-04-06T02:22:13.749Z,17.37
2019-04-06T02:24:42.270Z,17.07
2019-04-06T02:27:10.815Z,17.30
2019-04-06T02:29:39.339Z,17.67
2019-04-06T02:32:09.642Z,16.80
2019-04-06T02:34:42.698Z,17.80
2019-04-06T02:37:12.889Z,17.07
2019-04-06T02:39:45.475Z,17.37
2019-04-06T02:42:18.856Z,17.53
2019-04-06T02:44:47.347Z,17.47
2019-04-06T02:47:15.819Z,18.43
2019-04-06T02:49:44.511Z,18.50
2019-04-06T02:52:13.041Z,17.80
2019-04-06T02:54:41.514Z,19.13
2019-04-06T02:57:10.261Z,17.17
2019-04-06T02:59:38.820Z,18.53
2019-04-06T03:02:07.269Z,19.47
2019-04-06T03:04:36.156Z,18.57
2019-04-06T03:07:04.844Z,19.03
2019-04-06T03:09:33.383Z,18.57
2019-04-06T03:12:01.996Z,19.30
2019-04-06T03:14:30.845Z,19.23
2019-04-06T03:16:59.356Z,19.70
2019-04-06T03:19:27.812Z,18.77
2019-04-06T03:21:56.291Z,20.13
2019-04-06T03:24:24.870Z,20.90
2019-04-06T03:27:00.931Z,20.13
2019-04-06T03:29:23.620Z,21.00
2019-04-06T03:31:52.066Z,19.60
2019-04-06T03:34:22.433Z,19.57
2019-04-06T03:36:50.756Z,19.07
2019-04-06T03:39:38.574Z,18.43
2019-04-06T03:42:26.391Z,18.63
2019-04-06T03:45:14.405Z,18.03
2019-04-06T03:47:42.904Z,18.27
2019-04-06T03:50:12.926Z,17.93
2019-04-06T03:52:41.443Z,19.90
2019-04-06T03:55:11.135Z,20.17
2019-04-06T03:57:39.604Z,18.53
2019-04-06T04:00:09.718Z,18.10
2019-04-06T04:02:38.350Z,18.63
2019-04-06T04:05:07.326Z,17.87
2019-04-06T04:07:39.058Z,17.73
2019-04-06T04:10:08.215Z,19.80
2019-04-06T04:12:37.276Z,19.37
2019-04-06T04:15:07.787Z,19.97
2019-04-06T04:17:36.348Z,19.20
2019-04-06T04:23:46.005Z,17.47
2019-04-06T04:26:15.201Z,18.00
2019-04-06T04:31:31.119Z,19.33
2019-04-06T04:33:59.601Z,18.70
2019-04-06T04:36:29.494Z,18.20
2019-04-06T04:38:58.466Z,19.03
2019-04-06T04:41:27.122Z,18.47
2019-04-06T04:43:55.627Z,18.07
2019-04-06T04:50:17.671Z,18.17
2019-04-06T04:52:47.610Z,19.00
2019-04-06T04:58:57.537Z,17.93
2019-04-06T05:01:26.395Z,18.80
2019-04-06T05:03:54.966Z,20.07
2019-04-06T05:06:40.668Z,19.23
2019-04-06T05:09:10.528Z,18.30
2019-04-06T05:11:45.035Z,18.53
2019-04-06T05:20:50.673Z,17.33
2019-04-06T05:27:35.084Z,18.70
2019-04-06T05:37:36.204Z,19.10
2019-04-06T05:43:57.010Z,20.43
2019-04-06T05:53:29.868Z,19.77
2019-04-06T05:59:27.719Z,20.60
2019-04-06T06:02:02.033Z,19.57
2019-04-06T06:05:05.691Z,19.90
2019-04-06T06:10:29.535Z,19.80
2019-04-06T06:13:00.818Z,19.00
2019-04-06T06:15:34.081Z,19.13
2019-04-06T06:30:55.796Z,19.23
2019-04-06T06:33:24.358Z,19.83
2019-04-06T06:35:52.960Z,20.43
2019-04-06T06:48:56.779Z,19.03
2019-04-06T06:55:14.279Z,19.43
2019-04-06T06:57:43.986Z,20.10
2019-04-06T07:00:15.550Z,20.47
2019-04-06T07:02:44.242Z,20.37
2019-04-06T07:05:23.195Z,21.07
2019-04-06T07:07:58.685Z,20.60
2019-04-06T07:10:30.072Z,21.00
2019-04-06T07:12:58.579Z,21.47
2019-04-06T07:19:11.120Z,22.20
2019-04-06T07:38:38.503Z,21.83
2019-04-06T07:44:54.537Z,22.77
2019-04-06T07:50:10.023Z,22.70
2019-04-06T08:03:12.727Z,23.20
2019-04-06T08:05:45.076Z,22.33
2019-04-06T08:08:19.770Z,23.87
2019-04-06T08:10:48.938Z,22.80
2019-04-06T08:18:03.757Z,21.97
2019-04-06T08:20:32.351Z,21.83
2019-04-06T08:26:41.632Z,21.20
2019-04-06T08:29:38.838Z,21.03
2019-04-06T08:35:55.348Z,21.50
2019-04-06T08:38:31.759Z,21.27
2019-04-06T08:44:48.589Z,20.90
2019-04-06T08:47:54.627Z,21.70
2019-04-06T08:50:23.159Z,21.33
2019-04-06T08:53:09.413Z,19.87
2019-04-06T08:59:15.001Z,21.10
2019-04-06T09:11:54.499Z,18.20
2019-04-06T09:22:10.875Z,18.33
2019-04-06T09:24:49.908Z,17.43
2019-04-06T09:27:45.790Z,17.70
2019-04-06T09:30:14.498Z,16.27
2019-04-06T09:32:51.828Z,14.97
2019-04-06T09:35:25.559Z,16.47
2019-04-06T09:40:37.846Z,15.97
2019-04-06T09:43:16.688Z,15.63
2019-04-06T09:49:10.875Z,15.60
2019-04-06T09:55:49.844Z,14.03
2019-04-06T10:30:09.964Z,16.57
2019-04-06T10:39:38.138Z,15.97
2019-04-06T10:46:17.342Z,17.90
2019-04-06T10:49:31.074Z,16.93
2019-04-06T10:56:20.225Z,15.57
2019-04-06T10:59:15.391Z,16.37
2019-04-06T11:08:30.618Z,15.00
2019-04-06T11:11:03.448Z,15.20
2019-04-06T11:20:43.999Z,13.37
2019-04-06T11:23:15.054Z,13.97
2019-04-06T11:25:50.637Z,14.17
2019-04-06T11:31:45.815Z,14.07
2019-04-06T11:34:30.120Z,13.17
2019-04-06T11:37:57.127Z,14.10
2019-04-06T11:44:19.190Z,13.50
2019-04-06T11:49:53.586Z,14.13
2019-04-06T11:52:47.256Z,12.53
2019-04-06T12:12:25.555Z,13.23
2019-04-06T12:21:31.426Z,21.47
2019-04-06T12:33:30.184Z,12.73
2019-04-06T12:36:03.039Z,12.87
2019-04-06T12:45:38.850Z,12.93
2019-04-06T12:48:10.185Z,12.40
2019-04-06T12:54:21.658Z,12.17
2019-04-06T12:56:52.114Z,12.30
2019-04-06T13:16:20.334Z,12.43
2019-04-06T13:21:48.361Z,12.07
2019-04-06T13:24:26.120Z,11.10
2019-04-06T13:27:20.228Z,11.47
2019-04-06T13:29:52.087Z,11.43
2019-04-06T13:32:33.468Z,11.37
2019-04-06T13:35:22.308Z,12.20
2019-04-06T13:49:29.212Z,12.00
2019-04-06T13:52:01.780Z,11.70
2019-04-06T13:57:43.785Z,12.37
2019-04-06T14:04:23.797Z,12.03
2019-04-06T14:07:01.689Z,12.03
2019-04-06T14:12:25.581Z,11.93
2019-04-06T14:15:00.071Z,11.43
2019-04-06T14:20:40.166Z,11.13
2019-04-06T14:23:28.002Z,11.40
2019-04-06T14:26:10.083Z,11.53
2019-04-06T14:28:40.304Z,11.50
2019-04-06T14:31:28.266Z,11.83
2019-04-06T14:45:56.455Z,10.80
2019-04-06T14:51:24.223Z,9.83
2019-04-06T14:53:57.799Z,10.57
2019-04-06T14:56:33.469Z,10.00
2019-04-06T14:59:21.427Z,9.80
2019-04-06T15:02:03.004Z,9.73
2019-04-06T15:07:26.455Z,9.07
2019-04-06T15:09:57.740Z,10.67
2019-04-06T15:12:27.907Z,9.40
2019-04-06T15:17:55.721Z,10.53
2019-04-06T15:23:19.860Z,10.60
2019-04-06T15:25:52.484Z,9.63
2019-04-06T15:33:59.793Z,8.90
2019-04-06T15:36:48.880Z,9.43
2019-04-06T15:42:49.110Z,9.33
2019-04-06T15:45:39.076Z,8.87
2019-04-06T15:48:13.880Z,9.70
2019-04-06T15:50:49.092Z,9.10
2019-04-06T15:53:40.558Z,9.73
2019-04-06T15:59:21.499Z,9.13
2019-04-06T16:13:39.542Z,9.50
2019-04-06T16:16:11.623Z,9.10
2019-04-06T16:21:53.410Z,9.53
2019-04-06T16:27:34.385Z,9.93
2019-04-06T16:30:10.658Z,9.50
2019-04-06T16:32:50.779Z,9.20
2019-04-06T16:35:39.915Z,9.97
2019-04-06T16:38:14.475Z,9.70
2019-04-06T16:43:53.131Z,9.50
2019-04-06T16:46:25.434Z,9.30
2019-04-06T16:51:50.073Z,9.27
2019-04-06T16:54:28.113Z,9.60
2019-04-06T17:00:17.184Z,9.23
2019-04-06T17:08:32.568Z,9.17
2019-04-06T17:11:02.675Z,9.63
2019-04-06T17:16:28.838Z,9.30
2019-04-06T17:19:16.228Z,9.53
2019-04-06T17:21:53.920Z,9.23
2019-04-06T17:24:30.389Z,9.60
2019-04-06T17:27:19.363Z,9.17
2019-04-06T17:29:50.641Z,9.50
2019-04-06T17:32:35.583Z,9.10
2019-04-06T17:35:13.735Z,8.80
2019-04-06T17:37:46.496Z,9.10
2019-04-06T17:40:25.434Z,10.33
2019-04-06T17:43:15.171Z,11.97
2019-04-06T17:45:56.544Z,12.17
2019-04-06T17:48:47.833Z,10.23
2019-04-06T17:51:29.007Z,11.27
2019-04-06T17:54:00.740Z,13.70
2019-04-06T17:56:48.889Z,13.50
2019-04-06T17:59:30.128Z,12.00
2019-04-06T18:02:08.295Z,11.03
2019-04-06T18:04:51.503Z,10.93
2019-04-06T18:07:31.779Z,11.77
2019-04-06T18:10:02.459Z,18.23
2019-04-06T18:12:49.112Z,13.90
2019-04-06T18:15:17.840Z,15.70
2019-04-06T18:17:46.317Z,13.87
2019-04-06T18:20:16.540Z,13.77
2019-04-06T18:22:45.035Z,10.33
2019-04-06T18:25:13.813Z,11.37
2019-04-06T18:27:42.324Z,10.60
2019-04-06T18:30:11.338Z,10.33
2019-04-06T18:32:45.120Z,9.70
2019-04-06T18:35:14.831Z,10.23
2019-04-06T18:37:55.686Z,10.10
2019-04-06T18:40:25.907Z,9.07
2019-04-06T18:42:54.564Z,9.77
2019-04-06T18:45:23.196Z,9.33
2019-04-06T18:47:51.968Z,8.80
2019-04-06T18:50:28.537Z,8.47
2019-04-06T18:52:53.201Z,9.47
2019-04-06T18:55:22.226Z,9.20
2019-04-06T18:57:52.640Z,8.93
2019-04-06T19:00:23.327Z,8.90
2019-04-06T19:02:52.884Z,8.97
2019-04-06T19:05:22.980Z,9.00
2019-04-06T19:07:52.025Z,8.87
2019-04-06T19:10:20.595Z,8.80
2019-04-06T19:12:49.493Z,9.17
2019-04-06T19:15:19.562Z,8.83
2019-04-06T19:17:48.432Z,8.87
2019-04-06T19:20:17.256Z,8.17
2019-04-06T19:22:46.799Z,8.67
2019-04-06T19:25:17.037Z,8.90
2019-04-06T19:27:46.900Z,9.40
2019-04-06T19:30:19.291Z,9.17
2019-04-06T19:32:48.293Z,8.73
2019-04-06T19:35:18.704Z,8.83
2019-04-06T19:37:48.614Z,8.93
2019-04-06T19:40:18.954Z,8.90
2019-04-06T19:42:48.941Z,9.20
2019-04-06T19:45:19.567Z,9.13
2019-04-06T19:47:49.655Z,9.10
2019-04-06T19:50:21.521Z,9.33
2019-04-06T19:52:50.050Z,8.70
2019-04-06T19:55:20.319Z,9.57
2019-04-06T19:57:50.635Z,9.53
2019-04-06T20:00:19.746Z,9.07
2019-04-06T20:02:49.649Z,9.10
2019-04-06T20:05:19.646Z,9.80
2019-04-06T20:07:49.443Z,9.27
2019-04-06T20:10:19.576Z,9.47
2019-04-06T20:12:49.256Z,9.47
2019-04-06T20:15:17.889Z,8.73
2019-04-06T20:17:47.561Z,9.43
2019-04-06T20:20:19.150Z,8.47
2019-04-06T20:22:47.671Z,8.73
2019-04-06T20:25:17.682Z,9.53
2019-04-06T20:28:21.302Z,8.27
2019-04-06T20:30:52.311Z,9.07
2019-04-06T20:33:25.878Z,8.53
2019-04-06T20:35:54.490Z,8.40
2019-04-06T20:38:24.724Z,9.03
2019-04-06T20:40:57.853Z,7.90
2019-04-06T20:43:27.737Z,7.60
2019-04-06T20:46:05.412Z,7.80
2019-04-06T20:48:34.010Z,7.17
2019-04-06T20:51:32.038Z,7.27
2019-04-06T20:54:01.038Z,7.20
2019-04-06T20:56:31.460Z,6.50
2019-04-06T20:59:00.197Z,7.00
2019-04-06T21:01:28.945Z,6.97
2019-04-06T21:04:02.652Z,6.63
2019-04-06T21:06:30.333Z,6.90
2019-04-06T21:08:59.985Z,7.23
2019-04-06T21:11:28.954Z,6.27
2019-04-06T21:14:06.290Z,6.47
2019-04-06T21:16:36.106Z,6.40
2019-04-06T21:19:04.831Z,6.00
2019-04-06T21:21:36.883Z,6.03
2019-04-06T21:24:05.510Z,5.37
2019-04-06T21:26:35.182Z,5.83
2019-04-06T21:29:05.144Z,6.53
2019-04-06T21:31:36.646Z,5.93
2019-04-06T21:34:12.079Z,5.70
2019-04-06T21:36:38.028Z,5.43
2019-04-06T21:39:25.901Z,5.53
2019-04-06T21:41:58.023Z,5.90
2019-04-06T21:44:28.064Z,5.70
2019-04-06T21:47:06.629Z,5.43
2019-04-06T21:49:50.164Z,5.50
2019-04-06T21:52:19.236Z,5.33
2019-04-06T21:54:49.841Z,4.93
2019-04-06T21:57:19.889Z,5.73
2019-04-06T21:59:49.860Z,5.33
2019-04-06T22:02:19.307Z,5.23
2019-04-06T22:04:49.720Z,5.30
2019-04-06T22:07:26.994Z,5.73
2019-04-06T22:09:59.170Z,5.43
2019-04-06T22:12:28.479Z,5.17
2019-04-06T22:14:58.314Z,5.40
2019-04-06T22:17:34.295Z,5.40
2019-04-06T22:20:06.479Z,5.27
2019-04-06T22:22:35.526Z,5.83
2019-04-06T22:25:05.905Z,5.47
2019-04-06T22:27:36.011Z,5.70
2019-04-06T22:30:09.636Z,5.40
2019-04-06T22:32:39.069Z,5.50
2019-04-06T22:35:10.160Z,5.90
2019-04-06T22:37:39.687Z,5.97
2019-04-06T22:40:09.624Z,6.23
2019-04-06T22:42:39.834Z,6.33
2019-04-06T22:45:12.236Z,6.77
2019-04-06T22:47:42.483Z,6.70
2019-04-06T22:50:12.494Z,6.40
2019-04-06T22:52:43.475Z,6.77
2019-04-06T22:56:04.405Z,6.57
2019-04-06T22:58:35.733Z,6.67
2019-04-06T23:01:08.961Z,5.97
2019-04-06T23:03:48.229Z,6.60
2019-04-06T23:06:41.518Z,6.27
2019-04-06T23:09:12.197Z,6.13
2019-04-06T23:12:00.743Z,5.50
2019-04-06T23:14:29.498Z,5.30
2019-04-06T23:17:53.638Z,6.13
2019-04-06T23:23:10.018Z,5.80
2019-04-06T23:26:22.421Z,5.27
2019-04-06T23:28:52.022Z,5.50
2019-04-06T23:32:00.055Z,5.30
2019-04-06T23:34:28.695Z,4.97
2019-04-06T23:36:58.364Z,5.20
2019-04-06T23:39:28.492Z,4.70
2019-04-06T23:41:58.895Z,5.20
2019-04-06T23:44:30.549Z,5.30
2019-04-06T23:47:43.258Z,5.20
2019-04-06T23:54:41.837Z,5.20
2019-04-06T23:57:11.315Z,5.13
2019-04-06T23:59:41.241Z,5.10
